Derby, Mississippi
Current Conditions -  °F | °C
As of 3:53 AM on Monday 26 Jan 2015 (Local Time) from KHBG Reporting Station
Clear Clear  
Wind Chill: 43°   Ceiling: Unl
Heat Index: 47°   Visibility: 10mi
Dew Point: 34°   Wind: 9mph
Humidity: 61%   Direction: 320°NW
Pressure: 30.01"   Gusts: NA
Location:  30.8781°N, 89.5858°W
Report Text: KHBG 260953Z AUTO 32008KT 10SM CLR 08/01 A3001 RMK AO2 SLP161 T00830011
Loading
Personal Weather Stations






























Interactive Weather Map New forecast layout! Learn more

10-Day Weather Forecast

Advertisements
Track Severe Weather on mobile